Time;durP1;ratioP1;P1;durP2;ratioP2;P2;SDS_P1;SDS_P2;PMS_P1;PMS_P2;Temp;Humidity;BMP_temperature;BMP_pressure;BME280_temperature;BME280_humidity;BME280_pressure;Samples;Min_cycle;Max_cycle;Signal;HPM_P1;HPM_P2
2021/12/28 00:00:47;;;;;;;1.75;0.85;;;;;;;9.38;0.00;60892.56;4816699;28;20026;-87
2021/12/28 00:03:27;;;;;;;2.47;0.50;;;;;;;-145.06;0.00;60892.56;4816400;28;20019;-86
2021/12/28 00:06:06;;;;;;;1.33;0.63;;;;;;;-145.06;0.00;60892.56;4812195;28;20031;-87
2021/12/28 00:08:46;;;;;;;1.37;0.70;;;;;;;-145.06;0.00;60892.56;4813491;28;20648;-86
2021/12/28 00:11:25;;;;;;;1.10;0.60;;;;;;;-145.06;0.00;60892.56;4802698;28;20278;-87
2021/12/28 00:14:06;;;;;;;0.70;0.55;;;;;;;-145.06;0.00;60892.56;4807472;28;20030;-87
2021/12/28 00:19:43;;;;;;;3.30;0.57;;;;;;;-145.06;0.00;60892.56;4806365;28;20026;-87
2021/12/28 00:22:22;;;;;;;0.98;0.50;;;;;;;-145.06;0.00;60892.56;4803761;28;20473;-87
2021/12/28 00:25:02;;;;;;;2.22;0.80;;;;;;;-145.06;0.00;60892.56;4816508;28;20377;-87
2021/12/28 00:27:42;;;;;;;0.95;0.50;;;;;;;-145.06;0.00;60892.56;4807786;28;20433;-86
2021/12/28 00:30:21;;;;;;;;;;;;;;;-145.06;0.00;60892.56;4798709;28;20042;-88
2021/12/28 00:33:00;;;;;;;1.35;0.47;;;;;;;-145.06;0.00;60892.56;4812432;28;19949;-86
2021/12/28 00:35:41;;;;;;;1.33;0.75;;;;;;;-145.06;0.00;60892.56;4832555;28;20069;-87
2021/12/28 00:38:24;;;;;;;1.05;0.60;;;;;;;-145.06;0.00;60892.56;4815415;28;20361;-87
2021/12/28 00:41:04;;;;;;;1.33;0.50;;;;;;;-145.06;0.00;60892.56;4821793;28;20484;-87
2021/12/28 00:43:43;;;;;;;;;;;;;;;-145.06;0.00;60892.56;4816460;28;20031;-88
2021/12/28 00:46:23;;;;;;;1.55;0.50;;;;;;;9.10;0.00;60892.56;4816440;28;20332;-87
2021/12/28 00:49:02;;;;;;;1.10;0.70;;;;;;;-145.06;0.00;60892.56;4805761;28;20038;-87
2021/12/28 00:51:41;;;;;;;3.03;0.50;;;;;;;-145.06;0.00;60892.56;4810728;28;20057;-86
2021/12/28 00:54:21;;;;;;;1.10;0.82;;;;;;;9.22;0.00;60892.56;4812447;28;20070;-87
2021/12/28 00:57:01;;;;;;;2.15;0.70;;;;;;;-145.06;0.00;60892.56;4813062;28;20038;-87
2021/12/28 00:59:40;;;;;;;2.15;0.77;;;;;;;-145.06;0.00;60892.56;4816210;28;20065;-87
2021/12/28 01:02:19;;;;;;;1.03;0.50;;;;;;;9.16;0.00;60892.56;4809909;28;20061;-87
2021/12/28 01:04:58;;;;;;;2.40;0.60;;;;;;;9.38;0.00;60892.56;4837541;28;20281;-86
2021/12/28 01:07:38;;;;;;;1.85;0.60;;;;;;;9.20;0.00;60892.56;4817463;28;20261;-87
2021/12/28 01:10:19;;;;;;;1.70;0.73;;;;;;;9.21;0.00;60892.56;4813717;28;20039;-87
2021/12/28 01:12:59;;;;;;;3.33;0.80;;;;;;;-145.06;0.00;60892.56;4840685;28;20030;-87
2021/12/28 01:15:39;;;;;;;1.08;0.47;;;;;;;9.24;0.00;60892.56;4809920;28;20035;-87
2021/12/28 01:18:19;;;;;;;3.47;0.73;;;;;;;-145.06;0.00;60892.56;4798037;28;20035;-87
2021/12/28 01:20:58;;;;;;;1.20;0.52;;;;;;;187.52;0.00;60892.56;4812644;28;20038;-87
2021/12/28 01:23:37;;;;;;;1.55;0.55;;;;;;;187.52;0.00;60892.56;4815939;28;20031;-87
2021/12/28 01:26:17;;;;;;;3.42;0.90;;;;;;;187.52;0.00;60892.56;4812488;28;20030;-86
2021/12/28 01:28:56;;;;;;;1.77;0.73;;;;;;;-145.06;0.00;60892.56;4816148;28;20512;-87
2021/12/28 01:31:37;;;;;;;2.57;0.70;;;;;;;-145.06;0.00;60892.56;4811925;28;20366;-86
2021/12/28 01:34:17;;;;;;;2.40;0.95;;;;;;;-145.06;0.00;60892.56;4814323;28;20436;-86
2021/12/28 01:36:56;;;;;;;;;;;;;;;9.26;0.00;60892.56;4806739;28;20741;-86
2021/12/28 01:39:35;;;;;;;1.50;0.50;;;;;;;-145.06;0.00;60892.56;4810019;28;19917;-87
2021/12/28 01:42:14;;;;;;;2.95;0.60;;;;;;;9.26;0.00;60892.56;4812073;28;20505;-88
2021/12/28 01:44:52;;;;;;;2.93;0.70;;;;;;;187.52;0.00;60892.56;4833260;28;20038;-86
2021/12/28 01:47:32;;;;;;;3.90;0.70;;;;;;;9.38;0.00;60892.56;4816612;28;20366;-87
2021/12/28 01:50:11;;;;;;;2.67;0.80;;;;;;;9.38;0.00;60892.56;4809419;28;20274;-86
2021/12/28 01:52:50;;;;;;;3.05;0.80;;;;;;;-145.06;0.00;60892.56;4807903;28;20026;-86
2021/12/28 01:55:29;;;;;;;3.77;1.00;;;;;;;21.08;0.00;60892.56;4809739;28;20038;-87
2021/12/28 01:58:08;;;;;;;2.10;0.60;;;;;;;9.47;0.00;60892.56;4836765;28;21079;-87
2021/12/28 02:00:50;;;;;;;2.72;1.10;;;;;;;-145.06;0.00;60892.56;4815588;28;20046;-87
2021/12/28 02:03:32;;;;;;;2.20;0.82;;;;;;;9.48;0.00;60892.56;4810957;28;20038;-87
2021/12/28 02:06:12;;;;;;;3.33;0.77;;;;;;;-145.06;0.00;60892.56;4818022;28;20034;-86
2021/12/28 02:08:55;;;;;;;;;;;;;;;187.52;0.00;60892.56;4844861;28;20105;-87
2021/12/28 02:11:34;;;;;;;2.53;0.85;;;;;;;-145.06;0.00;60892.56;4813759;28;19910;-87
2021/12/28 02:14:14;;;;;;;3.63;0.90;;;;;;;9.61;0.00;60892.56;4813366;28;20517;-88
2021/12/28 02:16:53;;;;;;;;;;;;;;;-145.06;0.00;60892.56;4802778;28;20027;-87
2021/12/28 02:19:32;;;;;;;1.70;0.80;;;;;;;-145.06;0.00;60892.56;4816091;28;19914;-87
2021/12/28 02:22:11;;;;;;;3.38;0.70;;;;;;;-145.06;0.00;60892.56;4816797;28;20941;-87
2021/12/28 02:24:50;;;;;;;3.60;1.10;;;;;;;-145.06;0.00;60892.56;4818411;28;21057;-87
2021/12/28 02:27:29;;;;;;;2.60;1.00;;;;;;;-145.06;0.00;60892.56;4813060;28;20038;-87
2021/12/28 02:30:15;;;;;;;4.80;1.30;;;;;;;-145.06;0.00;60892.56;4810492;28;20782;-87
2021/12/28 02:32:54;;;;;;;3.10;0.93;;;;;;;-145.06;0.00;60892.56;4813157;28;20105;-87
2021/12/28 02:35:34;;;;;;;1.75;0.93;;;;;;;-145.06;0.00;60892.56;4803983;28;20034;-86
2021/12/28 02:38:13;;;;;;;1.95;0.80;;;;;;;-145.06;0.00;60892.56;4817361;28;20381;-87
2021/12/28 02:40:52;;;;;;;3.13;0.90;;;;;;;-145.06;0.00;60892.56;4818810;28;20038;-86
2021/12/28 02:43:32;;;;;;;2.03;0.90;;;;;;;-145.06;0.00;60892.56;4817778;28;20026;-87
2021/12/28 02:46:10;;;;;;;1.08;0.52;;;;;;;10.08;0.00;60892.56;4809638;28;20030;-86
2021/12/28 02:48:49;;;;;;;3.20;0.77;;;;;;;10.09;0.00;60892.56;4843301;28;20026;-87
2021/12/28 02:51:28;;;;;;;2.88;1.10;;;;;;;10.11;0.00;60892.56;4833502;28;20613;-87
2021/12/28 02:54:07;;;;;;;3.50;0.80;;;;;;;-145.06;0.00;60892.56;4821143;28;20031;-87
2021/12/28 02:56:46;;;;;;;3.05;0.80;;;;;;;-145.06;0.00;60892.56;4817633;28;20357;-87
2021/12/28 02:59:25;;;;;;;3.20;1.07;;;;;;;10.16;0.00;60892.56;4820188;28;20463;-87
2021/12/28 03:02:04;;;;;;;2.55;0.65;;;;;;;-145.06;0.00;60892.56;4815868;28;20286;-87
2021/12/28 03:04:43;;;;;;;5.97;1.13;;;;;;;-145.06;0.00;60892.56;4817442;28;20030;-86
2021/12/28 03:07:22;;;;;;;2.80;1.00;;;;;;;-145.06;0.00;60892.56;4816847;28;20369;-87
2021/12/28 03:10:02;;;;;;;2.03;0.90;;;;;;;-145.06;0.00;60892.56;4816025;28;20070;-87
2021/12/28 03:12:41;;;;;;;2.40;0.70;;;;;;;-145.06;0.00;60892.56;4812608;28;20109;-87
2021/12/28 03:15:21;;;;;;;3.05;1.00;;;;;;;-145.06;0.00;60892.56;4809844;28;20034;-86
2021/12/28 03:18:00;;;;;;;1.35;0.70;;;;;;;-145.06;0.00;60892.56;4812012;28;20039;-86
2021/12/28 03:20:39;;;;;;;1.83;0.85;;;;;;;-145.06;0.00;60892.56;4817459;28;20030;-86
2021/12/28 03:23:21;;;;;;;2.15;0.93;;;;;;;-145.06;0.00;60892.56;4813352;28;20528;-87
2021/12/28 03:26:00;;;;;;;1.98;0.70;;;;;;;-145.06;0.00;60892.56;4836454;28;20038;-87
2021/12/28 03:28:41;;;;;;;1.60;0.88;;;;;;;-145.06;0.00;60892.56;4817300;28;20030;-87
2021/12/28 03:31:21;;;;;;;1.88;0.73;;;;;;;-145.06;0.00;60892.56;4817426;28;20042;-87
2021/12/28 03:34:01;;;;;;;1.90;0.80;;;;;;;-145.06;0.00;60892.56;4816552;28;20022;-86
2021/12/28 03:36:41;;;;;;;3.00;0.87;;;;;;;-145.06;0.00;60892.56;4818581;28;20484;-87
2021/12/28 03:39:19;;;;;;;1.13;0.52;;;;;;;-145.06;0.00;60892.56;4809376;28;20035;-86
2021/12/28 03:41:58;;;;;;;3.10;0.70;;;;;;;-145.06;0.00;60892.56;4814048;28;20046;-87
2021/12/28 03:44:37;;;;;;;1.60;0.70;;;;;;;-145.06;0.00;60892.56;4812809;28;20030;-87
2021/12/28 03:47:16;;;;;;;1.65;0.85;;;;;;;-145.06;0.00;60892.56;4804089;28;20286;-87
2021/12/28 03:49:55;;;;;;;2.93;0.73;;;;;;;-145.06;0.00;60892.56;4810557;28;20034;-87
2021/12/28 03:52:35;;;;;;;1.95;0.82;;;;;;;-145.06;0.00;60892.56;4813222;28;20293;-87
2021/12/28 03:55:14;;;;;;;2.70;0.88;;;;;;;10.36;0.00;60892.56;4813239;28;20034;-86
2021/12/28 03:57:55;;;;;;;2.35;0.75;;;;;;;-145.06;0.00;60892.56;4803190;28;20038;-86
2021/12/28 04:00:40;;;;;;;2.78;0.80;;;;;;;-145.06;0.00;60892.56;4809888;28;20038;-86
2021/12/28 04:03:19;;;;;;;1.77;0.57;;;;;;;-145.06;0.00;60892.56;4817025;28;20160;-85
2021/12/28 04:05:59;;;;;;;1.70;0.68;;;;;;;-145.06;0.00;60892.56;4818366;28;20109;-85
2021/12/28 04:08:39;;;;;;;;;;;;;;;-145.06;0.00;60892.56;4811752;28;20484;-87
2021/12/28 04:14:03;;;;;;;1.40;0.60;;;;;;;-145.06;0.00;60892.56;4804796;28;20031;-86
2021/12/28 04:16:42;;;;;;;1.10;0.47;;;;;;;-145.06;0.00;60892.56;4810932;28;20026;-87
2021/12/28 04:19:21;;;;;;;1.83;0.70;;;;;;;-145.06;0.00;60892.56;4812432;28;20034;-87
2021/12/28 04:22:00;;;;;;;1.37;0.70;;;;;;;-145.06;0.00;60892.56;4815824;28;20042;-88
2021/12/28 04:24:39;;;;;;;3.27;1.00;;;;;;;-145.06;0.00;60892.56;4845913;28;20289;-86
2021/12/28 04:27:18;;;;;;;2.17;0.60;;;;;;;-145.06;0.00;60892.56;4808945;28;20266;-88
2021/12/28 04:29:57;;;;;;;2.97;0.60;;;;;;;-145.06;0.00;60892.56;4819090;28;20900;-87
2021/12/28 04:32:36;;;;;;;1.40;0.70;;;;;;;-145.06;0.00;60892.56;4812191;28;20026;-88
2021/12/28 04:35:16;;;;;;;2.10;0.77;;;;;;;-145.06;0.00;60892.56;4816218;28;20269;-87
2021/12/28 04:37:55;;;;;;;1.10;0.60;;;;;;;-145.06;0.00;60892.56;4816083;28;20604;-87
2021/12/28 04:40:35;;;;;;;1.83;0.70;;;;;;;-145.06;0.00;60892.56;4815072;28;20069;-87
2021/12/28 04:43:15;;;;;;;2.13;0.70;;;;;;;-145.06;0.00;60892.56;4814418;28;20062;-87
2021/12/28 04:45:54;;;;;;;1.23;0.52;;;;;;;-145.06;0.00;60892.56;4842524;28;20046;-86
2021/12/28 04:48:34;;;;;;;1.20;0.45;;;;;;;-145.06;0.00;60892.56;4811875;28;20061;-87
2021/12/28 04:51:13;;;;;;;;;;;;;;;-145.06;0.00;60892.56;4839224;28;20595;-86
2021/12/28 04:53:55;;;;;;;1.65;0.50;;;;;;;-145.06;0.00;60892.56;4810125;28;19914;-87
2021/12/28 04:56:34;;;;;;;1.10;0.40;;;;;;;-145.06;0.00;60892.56;4810796;28;20061;-86
2021/12/28 04:59:15;;;;;;;2.20;0.50;;;;;;;-145.06;0.00;60892.56;4816394;28;20030;-87
2021/12/28 05:01:54;;;;;;;0.88;0.40;;;;;;;-145.06;0.00;60892.56;4835262;28;20070;-86
2021/12/28 05:04:33;;;;;;;0.68;0.38;;;;;;;-145.06;0.00;60892.56;4827623;28;20381;-86
2021/12/28 05:07:12;;;;;;;1.48;0.50;;;;;;;-145.06;0.00;60892.56;4813193;28;20038;-87
2021/12/28 05:09:57;;;;;;;0.73;0.47;;;;;;;-145.06;0.00;60892.56;4812825;28;20030;-87
2021/12/28 05:12:36;;;;;;;0.50;0.40;;;;;;;-145.06;0.00;60892.56;4812757;28;20026;-87
2021/12/28 05:15:17;;;;;;;1.27;0.45;;;;;;;-145.06;0.00;60892.56;4821176;28;20042;-86
2021/12/28 05:17:55;;;;;;;2.17;0.55;;;;;;;-145.06;0.00;60892.56;4815104;28;20038;-87
2021/12/28 05:20:35;;;;;;;0.70;0.50;;;;;;;-145.06;0.00;60892.56;4813314;28;20438;-86
2021/12/28 05:23:14;;;;;;;0.30;0.20;;;;;;;-145.06;0.00;60892.56;4811298;28;20404;-86
2021/12/28 05:25:53;;;;;;;0.35;0.20;;;;;;;-145.06;0.00;60892.56;4817318;28;20484;-87
2021/12/28 05:28:31;;;;;;;1.05;0.40;;;;;;;-145.06;0.00;60892.56;4813755;28;20038;-87
2021/12/28 05:31:11;;;;;;;0.40;0.30;;;;;;;-145.06;0.00;60892.56;4828557;28;20061;-87
2021/12/28 05:33:51;;;;;;;0.80;0.30;;;;;;;-145.06;0.00;60892.56;4806971;28;20121;-86
2021/12/28 05:36:30;;;;;;;0.35;0.30;;;;;;;-145.06;0.00;60892.56;4804457;28;20362;-86
2021/12/28 05:39:09;;;;;;;0.43;0.30;;;;;;;-145.06;0.00;60892.56;4812255;28;20034;-86
2021/12/28 05:41:49;;;;;;;0.50;0.30;;;;;;;-145.06;0.00;60892.56;4818125;28;20101;-87
2021/12/28 05:44:27;;;;;;;0.30;0.30;;;;;;;-145.06;0.00;60892.56;4803529;28;20035;-87
2021/12/28 05:47:06;;;;;;;0.30;0.30;;;;;;;-145.06;0.00;60892.56;4814464;28;20609;-87
2021/12/28 05:49:46;;;;;;;0.30;0.30;;;;;;;-145.06;0.00;60892.56;4810290;28;20030;-85
2021/12/28 05:52:25;;;;;;;0.22;0.22;;;;;;;-145.06;0.00;60892.56;4806145;28;21027;-87
2021/12/28 05:55:05;;;;;;;0.40;0.40;;;;;;;-145.06;0.00;60892.56;4813613;28;20047;-86
2021/12/28 05:57:44;;;;;;;0.20;0.20;;;;;;;-145.06;0.00;60892.56;4834965;28;20472;-86
2021/12/28 06:00:24;;;;;;;0.30;0.30;;;;;;;-145.06;0.00;60892.56;4812956;28;20035;-87
2021/12/28 06:03:03;;;;;;;0.30;0.30;;;;;;;-145.06;0.00;60892.56;4812255;28;20078;-87
2021/12/28 06:05:42;;;;;;;1.40;0.40;;;;;;;-145.06;0.00;60892.56;4814962;28;20034;-86
2021/12/28 06:08:21;;;;;;;0.20;0.20;;;;;;;-145.06;0.00;60892.56;4811835;28;20034;-87
2021/12/28 06:11:03;;;;;;;0.40;0.30;;;;;;;-145.06;0.00;60892.56;4805114;28;20278;-87
2021/12/28 06:13:42;;;;;;;0.30;0.30;;;;;;;-145.06;0.00;60892.56;4809748;28;20612;-87
2021/12/28 06:16:21;;;;;;;0.30;0.30;;;;;;;-145.06;0.00;60892.56;4814079;28;20038;-86
2021/12/28 06:19:02;;;;;;;0.30;0.30;;;;;;;-145.06;0.00;60892.56;4811698;28;20488;-86
2021/12/28 06:21:41;;;;;;;0.20;0.20;;;;;;;-145.06;0.00;60892.56;4815399;28;20372;-86
2021/12/28 06:24:20;;;;;;;0.80;0.40;;;;;;;-145.06;0.00;60892.56;4822288;28;20022;-86
2021/12/28 06:26:59;;;;;;;0.33;0.33;;;;;;;-145.06;0.00;60892.56;4809117;28;20397;-86
2021/12/28 06:29:38;;;;;;;0.30;0.30;;;;;;;-145.06;0.00;60892.56;4811566;28;20273;-86
2021/12/28 06:32:17;;;;;;;0.97;0.40;;;;;;;-145.06;0.00;60892.56;4810123;28;20034;-87
2021/12/28 06:34:56;;;;;;;0.30;0.30;;;;;;;-145.06;0.00;60892.56;4810039;28;20811;-87
2021/12/28 06:37:35;;;;;;;0.63;0.40;;;;;;;-145.06;0.00;60892.56;4815745;28;20034;-87
2021/12/28 06:40:14;;;;;;;0.60;0.50;;;;;;;-145.06;0.00;60892.56;4814620;28;20058;-87
2021/12/28 06:42:53;;;;;;;1.23;0.63;;;;;;;-145.06;0.00;60892.56;4811088;28;20030;-87
2021/12/28 06:45:32;;;;;;;0.57;0.50;;;;;;;-145.06;0.00;60892.56;4812963;28;20030;-86
2021/12/28 06:48:11;;;;;;;0.82;0.73;;;;;;;-145.06;0.00;60892.56;4812967;28;20448;-87
2021/12/28 06:50:50;;;;;;;0.63;0.57;;;;;;;-145.06;0.00;60892.56;4813498;28;20038;-87
2021/12/28 06:53:29;;;;;;;0.68;0.68;;;;;;;-145.06;0.00;60892.56;4813654;28;20488;-86
2021/12/28 06:56:08;;;;;;;0.87;0.70;;;;;;;-145.06;0.00;60892.56;4812253;28;20069;-87
2021/12/28 06:58:47;;;;;;;1.47;1.03;;;;;;;-145.06;0.00;60892.56;4809088;28;20045;-87
2021/12/28 07:01:26;;;;;;;0.95;0.70;;;;;;;-145.06;0.00;60892.56;4809976;28;20601;-87
2021/12/28 07:04:05;;;;;;;1.42;0.90;;;;;;;-145.06;0.00;60892.56;4811807;28;20038;-86
2021/12/28 07:06:44;;;;;;;0.80;0.70;;;;;;;-145.06;0.00;60892.56;4808327;28;20038;-87
2021/12/28 07:09:23;;;;;;;0.57;0.53;;;;;;;-145.06;0.00;60892.56;4810517;28;20293;-88
2021/12/28 07:12:02;;;;;;;0.50;0.50;;;;;;;-145.06;0.00;60892.56;4810207;28;20180;-85
2021/12/28 07:14:41;;;;;;;1.05;0.90;;;;;;;-145.06;0.00;60892.56;4828089;28;20018;-87
2021/12/28 07:17:20;;;;;;;2.03;0.57;;;;;;;-145.06;0.00;60892.56;4806337;28;20042;-87
2021/12/28 07:19:59;;;;;;;0.80;0.60;;;;;;;-145.06;0.00;60892.56;4815426;28;20754;-87
2021/12/28 07:22:38;;;;;;;0.80;0.60;;;;;;;-145.06;0.00;60892.56;4813114;28;20035;-87
2021/12/28 07:25:17;;;;;;;1.00;0.60;;;;;;;-145.06;0.00;60892.56;4809200;28;20034;-87
2021/12/28 07:27:57;;;;;;;0.90;0.60;;;;;;;-145.06;0.00;60892.56;4812124;28;20042;-87
2021/12/28 07:30:35;;;;;;;0.88;0.65;;;;;;;-145.06;0.00;60892.56;4814280;28;20030;-87
2021/12/28 07:33:15;;;;;;;0.65;0.60;;;;;;;-145.06;0.00;60892.56;4802183;28;20038;-87
2021/12/28 07:35:53;;;;;;;0.50;0.50;;;;;;;-145.06;0.00;60892.56;4806936;28;20034;-87
2021/12/28 07:38:32;;;;;;;0.45;0.40;;;;;;;-145.06;0.00;60892.56;4805812;28;20382;-87
2021/12/28 07:41:11;;;;;;;0.82;0.60;;;;;;;-145.06;0.00;60892.56;4814359;28;20026;-87
2021/12/28 07:43:50;;;;;;;0.32;0.32;;;;;;;-145.06;0.00;60892.56;4812838;28;20488;-87
2021/12/28 07:46:29;;;;;;;0.40;0.40;;;;;;;-145.06;0.00;60892.56;4813207;28;20033;-87
2021/12/28 07:49:08;;;;;;;0.73;0.60;;;;;;;-145.06;0.00;60892.56;4808317;28;20492;-86
2021/12/28 07:51:47;;;;;;;0.47;0.40;;;;;;;-145.06;0.00;60892.56;4803711;28;20278;-86
2021/12/28 07:54:26;;;;;;;0.30;0.30;;;;;;;10.04;0.00;60892.56;4798576;28;20473;-86
2021/12/28 07:57:05;;;;;;;0.22;0.20;;;;;;;-145.06;0.00;60892.56;4814656;28;20038;-88
2021/12/28 07:59:45;;;;;;;0.35;0.30;;;;;;;-145.06;0.00;60892.56;4815917;28;20042;-87
2021/12/28 08:02:23;;;;;;;0.30;0.30;;;;;;;-145.06;0.00;60892.56;4817758;28;20029;-86
2021/12/28 08:05:03;;;;;;;0.57;0.50;;;;;;;-145.06;0.00;60892.56;4816901;28;20273;-86
2021/12/28 08:07:43;;;;;;;1.77;0.80;;;;;;;-145.06;0.00;60892.56;4818416;28;20033;-87
2021/12/28 08:10:22;;;;;;;1.33;0.68;;;;;;;-145.06;0.00;60892.56;4815645;28;20034;-85
2021/12/28 08:13:01;;;;;;;1.45;1.00;;;;;;;-145.06;0.00;60892.56;4812951;28;20026;-86
2021/12/28 08:15:40;;;;;;;2.20;1.27;;;;;;;-145.06;0.00;60892.56;4806326;28;20039;-86
2021/12/28 08:18:19;;;;;;;2.40;1.35;;;;;;;-145.06;0.00;60892.56;4810407;28;20030;-87
2021/12/28 08:20:58;;;;;;;2.63;1.63;;;;;;;-145.06;0.00;60892.56;4810348;28;20460;-87
2021/12/28 08:23:37;;;;;;;3.58;1.52;;;;;;;10.68;0.00;60892.56;4808712;28;20030;-87
2021/12/28 08:26:16;;;;;;;4.53;2.75;;;;;;;-145.06;0.00;60892.56;4817127;28;20034;-88
2021/12/28 08:28:55;;;;;;;4.97;2.42;;;;;;;-145.06;0.00;60892.56;4813495;28;20058;-87
2021/12/28 08:31:35;;;;;;;3.92;1.92;;;;;;;-145.06;0.00;60892.56;4804663;28;20030;-88
2021/12/28 08:34:14;;;;;;;4.32;1.98;;;;;;;-145.06;0.00;60892.56;4809258;28;20030;-86
2021/12/28 08:36:53;;;;;;;4.77;2.10;;;;;;;-145.06;0.00;60892.56;4826106;28;20022;-87
2021/12/28 08:39:32;;;;;;;4.47;2.40;;;;;;;-145.06;0.00;60892.56;4815789;28;20480;-87
2021/12/28 08:42:11;;;;;;;4.10;2.35;;;;;;;-145.06;0.00;60892.56;4839067;28;20061;-87
2021/12/28 08:44:51;;;;;;;4.25;2.22;;;;;;;-145.06;0.00;60892.56;4809634;28;20030;-87
2021/12/28 08:47:30;;;;;;;2.97;1.50;;;;;;;-145.06;0.00;60892.56;4820652;28;20061;-87
2021/12/28 08:50:10;;;;;;;2.70;1.65;;;;;;;-145.06;0.00;60892.56;4812694;28;20042;-88
2021/12/28 08:52:50;;;;;;;2.10;1.10;;;;;;;-145.06;0.00;60892.56;4813793;28;20030;-87
2021/12/28 08:55:29;;;;;;;;;;;;;;;-145.06;0.00;60892.56;4830561;28;20038;-87
2021/12/28 08:58:08;;;;;;;1.23;0.80;;;;;;;-145.06;0.00;60892.56;4824464;28;20352;-87
2021/12/28 09:00:47;;;;;;;0.90;0.70;;;;;;;-145.06;0.00;60892.56;4814227;28;20030;-87
2021/12/28 09:03:27;;;;;;;2.10;0.63;;;;;;;-145.06;0.00;60892.56;4818148;28;20034;-88
2021/12/28 09:06:06;;;;;;;1.52;0.90;;;;;;;-145.06;0.00;60892.56;4818537;28;20266;-87
2021/12/28 09:08:45;;;;;;;0.70;0.60;;;;;;;-145.06;0.00;60892.56;4816813;28;20113;-86
2021/12/28 09:11:24;;;;;;;1.05;0.70;;;;;;;-145.06;0.00;60892.56;4817162;28;20034;-87
2021/12/28 09:14:04;;;;;;;0.68;0.52;;;;;;;-145.06;0.00;60892.56;4812018;28;20039;-87
2021/12/28 09:16:43;;;;;;;0.45;0.40;;;;;;;-145.06;0.00;60892.56;4807074;28;20026;-87
2021/12/28 09:19:23;;;;;;;0.30;0.30;;;;;;;-145.06;0.00;60892.56;4818658;28;20022;-86
2021/12/28 09:22:03;;;;;;;0.57;0.43;;;;;;;-145.06;0.00;60892.56;4820655;28;20034;-87
2021/12/28 09:24:42;;;;;;;0.30;0.30;;;;;;;-145.06;0.00;60892.56;4815832;28;20066;-87
2021/12/28 09:27:21;;;;;;;0.20;0.20;;;;;;;-145.06;0.00;60892.56;4820594;28;20469;-87
2021/12/28 09:30:00;;;;;;;0.30;0.30;;;;;;;10.90;0.00;60892.56;4818087;28;20030;-86
2021/12/28 09:32:40;;;;;;;0.30;0.25;;;;;;;11.98;0.00;60892.56;4837435;28;20038;-87
2021/12/28 09:35:19;;;;;;;0.22;0.22;;;;;;;10.99;0.00;60892.56;4816976;28;20038;-88
2021/12/28 09:37:59;;;;;;;0.30;0.20;;;;;;;-145.06;0.00;60892.56;4815489;28;20058;-87
2021/12/28 09:40:38;;;;;;;0.20;0.20;;;;;;;-145.06;0.00;60892.56;4817845;28;20269;-88
2021/12/28 09:43:18;;;;;;;0.20;0.20;;;;;;;-145.06;0.00;60892.56;4820074;28;20035;-86
2021/12/28 09:45:57;;;;;;;0.20;0.20;;;;;;;-145.06;0.00;60892.56;4816867;28;20042;-87
2021/12/28 09:48:36;;;;;;;0.20;0.20;;;;;;;-145.06;0.00;60892.56;4816952;28;20030;-87
2021/12/28 09:51:16;;;;;;;0.20;0.20;;;;;;;-145.06;0.00;60892.56;4819813;28;20652;-87
2021/12/28 09:53:55;;;;;;;;;;;;;;;-145.06;0.00;60892.56;4818716;28;20034;-87
2021/12/28 09:56:36;;;;;;;0.20;0.20;;;;;;;-145.06;0.00;60892.56;4822831;28;19914;-87
2021/12/28 09:59:15;;;;;;;0.25;0.20;;;;;;;-145.06;0.00;60892.56;4815810;28;20038;-86
2021/12/28 10:01:56;;;;;;;0.33;0.30;;;;;;;-145.06;0.00;60892.56;4820854;28;20046;-88
2021/12/28 10:04:52;;;;;;;0.20;0.20;;;;;;;-145.06;0.00;60892.56;4816290;28;20858;-87
2021/12/28 10:07:35;;;;;;;0.60;0.20;;;;;;;-145.06;0.00;60892.56;4816600;28;20026;-87
2021/12/28 10:10:15;;;;;;;0.20;0.20;;;;;;;-145.06;0.00;60892.56;4801005;28;20621;-87
2021/12/28 10:12:56;;;;;;;0.20;0.20;;;;;;;-145.06;0.00;60892.56;4819881;28;20022;-87
2021/12/28 10:15:39;;;;;;;0.20;0.20;;;;;;;-145.06;0.00;60892.56;4813023;28;20042;-87
2021/12/28 10:18:19;;;;;;;0.20;0.20;;;;;;;-145.06;0.00;60892.56;4819409;28;20042;-88
2021/12/28 10:20:59;;;;;;;;;;;;;;;-145.06;0.00;60892.56;4817608;28;20042;-87
2021/12/28 10:23:39;;;;;;;0.20;0.20;;;;;;;-145.06;0.00;60892.56;4818006;28;19992;-87
2021/12/28 10:26:18;;;;;;;0.10;0.10;;;;;;;11.70;0.00;60892.56;4818135;28;20035;-87
2021/12/28 10:29:01;;;;;;;0.20;0.20;;;;;;;11.98;0.00;60892.56;4815248;28;20370;-87
2021/12/28 10:31:39;;;;;;;0.20;0.20;;;;;;;11.80;0.00;60892.56;4815116;28;20685;-88
2021/12/28 10:34:19;;;;;;;0.20;0.20;;;;;;;11.98;0.00;60892.56;4810852;28;20030;-87
2021/12/28 10:37:13;;;;;;;0.30;0.30;;;;;;;15.88;0.00;60892.56;4808029;28;20034;-87
2021/12/28 10:39:56;;;;;;;0.20;0.20;;;;;;;15.88;0.00;60892.56;4819427;28;20627;-87
2021/12/28 10:42:40;;;;;;;0.20;0.20;;;;;;;-145.06;0.00;60892.56;4840844;28;20030;-87
2021/12/28 10:45:28;;;;;;;0.20;0.20;;;;;;;-145.06;0.00;60892.56;4806309;28;20038;-87
2021/12/28 10:48:19;;;;;;;0.20;0.20;;;;;;;15.88;0.00;60892.56;4812140;28;20062;-87
2021/12/28 10:51:04;;;;;;;0.20;0.20;;;;;;;-145.06;0.00;60892.56;4814800;28;20484;-88
2021/12/28 10:54:01;;;;;;;0.20;0.20;;;;;;;-145.06;0.00;60892.56;4815433;28;20476;-88
2021/12/28 10:56:46;;;;;;;0.20;0.20;;;;;;;-145.06;0.00;60892.56;4807579;28;20373;-88
2021/12/28 10:59:31;;;;;;;0.10;0.10;;;;;;;12.24;0.00;60892.56;4812665;28;20039;-88
2021/12/28 11:02:21;;;;;;;0.20;0.20;;;;;;;12.27;0.00;60892.56;4803572;28;20393;-88
2021/12/28 11:05:00;;;;;;;0.35;0.30;;;;;;;-145.06;0.00;60892.56;4818225;28;20042;-88
2021/12/28 11:07:55;;;;;;;0.20;0.20;;;;;;;21.08;0.00;60892.56;4819328;28;20034;-88
2021/12/28 11:10:39;;;;;;;0.17;0.17;;;;;;;-145.06;0.00;60892.56;4817574;28;20027;-89
2021/12/28 11:13:21;;;;;;;0.25;0.20;;;;;;;-145.06;0.00;60892.56;4818335;28;20030;-89
2021/12/28 11:16:05;;;;;;;0.20;0.20;;;;;;;-145.06;0.00;60892.56;4814009;28;20476;-85
2021/12/28 11:18:45;;;;;;;0.35;0.20;;;;;;;-145.06;0.00;60892.56;4818363;28;20030;-88
2021/12/28 11:21:28;;;;;;;0.20;0.20;;;;;;;-145.06;0.00;60892.56;4803802;28;20027;-88
2021/12/28 11:24:07;;;;;;;0.17;0.15;;;;;;;-145.06;0.00;60892.56;4828299;28;20618;-89
2021/12/28 11:26:50;;;;;;;0.20;0.20;;;;;;;-145.06;0.00;60892.56;4812974;28;20035;-86
2021/12/28 11:29:31;;;;;;;0.10;0.10;;;;;;;-145.06;0.00;60892.56;4810171;28;20038;-85
2021/12/28 11:32:20;;;;;;;1.10;0.50;;;;;;;-145.06;0.00;60892.56;4816524;28;20026;-85
2021/12/28 11:34:59;;;;;;;0.20;0.20;;;;;;;-145.06;0.00;60892.56;4814164;28;20053;-84
2021/12/28 11:37:38;;;;;;;0.30;0.30;;;;;;;-145.06;0.00;60892.56;4816441;28;20042;-85
2021/12/28 11:40:17;;;;;;;0.20;0.20;;;;;;;15.88;0.00;60892.56;4819134;28;20273;-86
2021/12/28 11:42:56;;;;;;;0.25;0.20;;;;;;;-145.06;0.00;60892.56;4814498;28;20034;-85
2021/12/28 11:45:35;;;;;;;0.32;0.30;;;;;;;-145.06;0.00;60892.56;4815327;28;20037;-85
2021/12/28 11:48:14;;;;;;;0.20;0.20;;;;;;;-145.06;0.00;60892.56;4817652;28;20034;-85
2021/12/28 11:50:54;;;;;;;0.30;0.30;;;;;;;12.22;0.00;60892.56;4811131;28;20034;-85
2021/12/28 11:53:36;;;;;;;0.20;0.20;;;;;;;12.21;0.00;60892.56;4813177;28;20057;-85
2021/12/28 11:56:19;;;;;;;0.47;0.30;;;;;;;-145.06;0.00;60892.56;4813380;28;20035;-85
2021/12/28 11:59:04;;;;;;;0.30;0.30;;;;;;;-145.06;0.00;60892.56;4810156;28;20030;-85
2021/12/28 12:01:45;;;;;;;0.40;0.30;;;;;;;-145.06;0.00;60892.56;4824687;28;20030;-85
2021/12/28 12:04:31;;;;;;;0.80;0.30;;;;;;;15.88;0.00;60892.56;4816479;28;20619;-87
2021/12/28 12:07:16;;;;;;;0.77;0.40;;;;;;;-145.06;0.00;60892.56;4818996;28;20038;-88
2021/12/28 12:09:58;;;;;;;1.98;0.80;;;;;;;-145.06;0.00;60892.56;4818044;28;20038;-88
2021/12/28 12:12:55;;;;;;;4.38;0.98;;;;;;;11.99;0.00;60892.56;4817102;28;20034;-88
2021/12/28 12:15:38;;;;;;;2.83;1.13;;;;;;;13.28;0.00;60892.56;4811338;28;20031;-88
2021/12/28 12:18:20;;;;;;;3.58;1.30;;;;;;;-145.06;0.00;60892.56;4816553;28;20203;-88
2021/12/28 12:21:04;;;;;;;1.75;1.00;;;;;;;-145.06;0.00;60892.56;4817759;28;20034;-88
2021/12/28 12:23:45;;;;;;;4.07;1.27;;;;;;;11.79;0.00;60892.56;4817204;28;20022;-88
2021/12/28 12:26:32;;;;;;;2.67;1.13;;;;;;;-145.06;0.00;60892.56;4818198;28;20038;-88
2021/12/28 12:29:21;;;;;;;2.30;0.90;;;;;;;11.82;0.00;60892.56;4816832;28;20034;-88
2021/12/28 12:32:00;;;;;;;12.18;2.50;;;;;;;11.67;0.00;60892.56;4808924;28;20030;-87
2021/12/28 12:34:40;;;;;;;9.18;2.58;;;;;;;-145.06;0.00;60892.56;4816899;28;20042;-88
2021/12/28 12:37:22;;;;;;;;;;;;;;;-145.06;0.00;60892.56;4821645;28;20022;-88